TAF LFRV
METAR LFRV
LFRV 082200Z AUTO 28005KT CAVOK 02/01 Q1008=
LFRV 082130Z AUTO 29005KT CAVOK 02/00 Q1008=
LFRV 082100Z AUTO 30006KT CAVOK 02/01 Q1007=
LFRV 082030Z AUTO 31005KT 280V350 CAVOK 03/01 Q1007=
LFRV 082000Z AUTO 31007KT CAVOK 03/01 Q1007=
WC LFRV
WS LFRV
WV LFRV